Time;durP1;ratioP1;P1;durP2;ratioP2;P2;SDS_P1;SDS_P2;PMS_P1;PMS_P2;Temp;Humidity;BMP_temperature;BMP_pressure;BME280_temperature;BME280_humidity;BME280_pressure;Samples;Min_cycle;Max_cycle;Signal;HPM_P1;HPM_P2
2022/12/06 00:01:56;;;;;;;11.40;8.27;;;6.50;99.90;;;;;;5031232;28;20698;-80
2022/12/06 00:04:22;;;;;;;8.87;7.17;;;6.60;99.90;;;;;;5033997;28;20685;-79
2022/12/06 00:06:51;;;;;;;10.23;7.80;;;6.90;99.90;;;;;;5034094;28;20261;-82
2022/12/06 00:09:20;;;;;;;11.00;7.83;;;7.00;99.90;;;;;;5032492;28;20204;-81
2022/12/06 00:11:47;;;;;;;10.00;8.20;;;7.00;99.90;;;;;;5032884;28;20208;-82
2022/12/06 00:14:14;;;;;;;9.63;8.53;;;7.00;99.90;;;;;;5034281;28;20288;-81
2022/12/06 00:16:41;;;;;;;10.20;7.70;;;6.70;99.90;;;;;;5033321;28;20290;-80
2022/12/06 00:19:09;;;;;;;10.83;7.70;;;6.80;99.90;;;;;;5033388;28;20274;-81
2022/12/06 00:21:37;;;;;;;10.10;7.70;;;6.60;99.90;;;;;;5033732;28;20793;-81
2022/12/06 00:24:07;;;;;;;11.27;7.17;;;6.40;99.90;;;;;;5032437;28;20325;-83
2022/12/06 00:26:36;;;;;;;10.60;8.23;;;6.40;99.90;;;;;;5033583;28;20195;-82
2022/12/06 00:29:04;;;;;;;11.20;8.27;;;6.50;99.90;;;;;;5031879;28;20282;-81
2022/12/06 00:31:33;;;;;;;14.38;9.18;;;6.50;99.90;;;;;;5021861;28;20462;-82
2022/12/06 00:34:00;;;;;;;9.37;7.93;;;6.50;99.90;;;;;;5033359;28;20207;-80
2022/12/06 00:36:29;;;;;;;10.67;7.27;;;6.50;99.90;;;;;;5033203;28;20626;-82
2022/12/06 00:38:58;;;;;;;11.50;7.53;;;6.50;99.90;;;;;;5032580;28;20290;-85
2022/12/06 00:41:27;;;;;;;12.13;7.67;;;6.40;99.90;;;;;;5030947;28;20601;-80
2022/12/06 00:43:54;;;;;;;14.23;8.23;;;6.30;99.90;;;;;;5028672;28;20698;-82
2022/12/06 00:46:23;;;;;;;12.27;8.10;;;6.30;99.90;;;;;;5026419;28;20195;-80
2022/12/06 00:48:52;;;;;;;8.80;7.60;;;6.40;99.90;;;;;;5026963;28;20206;-83
2022/12/06 00:51:20;;;;;;;7.60;6.87;;;6.30;99.90;;;;;;5033917;28;20257;-83
2022/12/06 00:53:50;;;;;;;14.13;8.10;;;6.20;99.90;;;;;;5033077;28;20314;-81
2022/12/06 00:56:18;;;;;;;14.93;10.52;;;6.20;99.90;;;;;;5033369;28;20903;-83
2022/12/06 00:58:47;;;;;;;11.33;8.93;;;6.20;99.90;;;;;;5034336;28;20738;-82
2022/12/06 01:01:16;;;;;;;11.27;8.37;;;6.40;99.90;;;;;;5033975;28;20226;-81
2022/12/06 01:03:44;;;;;;;11.53;8.00;;;6.40;99.90;;;;;;5033298;28;20321;-79
2022/12/06 01:06:14;;;;;;;11.47;7.63;;;6.50;99.90;;;;;;5034498;28;20267;-82
2022/12/06 01:08:43;;;;;;;12.60;8.23;;;6.30;99.90;;;;;;5034341;28;20226;-84
2022/12/06 01:11:13;;;;;;;11.10;8.07;;;6.30;99.90;;;;;;5019148;28;20338;-84
2022/12/06 01:13:40;;;;;;;10.20;8.13;;;6.40;99.90;;;;;;5033685;28;20671;-80
2022/12/06 01:16:10;;;;;;;12.20;8.50;;;6.40;99.90;;;;;;5022570;28;20203;-87
2022/12/06 01:18:41;;;;;;;13.07;8.03;;;6.30;99.90;;;;;;5037472;28;20211;-81
2022/12/06 01:21:10;;;;;;;9.50;8.13;;;6.40;99.90;;;;;;5035470;28;20207;-86
2022/12/06 01:23:37;;;;;;;10.87;8.30;;;6.40;99.90;;;;;;5025589;28;20231;-79
2022/12/06 01:26:04;;;;;;;15.70;8.37;;;6.40;99.90;;;;;;5037554;28;20202;-79
2022/12/06 01:28:31;;;;;;;10.80;8.70;;;6.40;99.90;;;;;;5037560;28;20670;-81
2022/12/06 01:30:58;;;;;;;14.50;9.17;;;6.50;99.90;;;;;;5037828;28;20199;-81
2022/12/06 01:33:26;;;;;;;13.33;9.03;;;6.60;99.90;;;;;;5037278;28;20203;-85
2022/12/06 01:35:53;;;;;;;18.63;9.40;;;6.50;99.90;;;;;;5023160;28;20207;-80
2022/12/06 01:38:20;;;;;;;9.90;8.73;;;6.50;99.90;;;;;;5037351;28;20207;-79
2022/12/06 01:40:48;;;;;;;12.60;9.03;;;6.40;99.90;;;;;;5033497;28;20545;-85
2022/12/06 01:43:33;;;;;;;13.67;9.00;;;6.60;99.90;;;;;;5026222;28;20203;-85
2022/12/06 01:46:05;;;;;;;12.40;8.67;;;6.60;99.90;;;;;;5035802;28;20199;-79
2022/12/06 01:48:34;;;;;;;12.00;9.33;;;6.50;99.90;;;;;;5035851;28;20217;-84
2022/12/06 01:51:03;;;;;;;12.43;9.50;;;6.50;99.90;;;;;;5036992;28;20203;-83
2022/12/06 01:53:31;;;;;;;10.37;8.17;;;6.60;99.90;;;;;;5035540;28;20223;-79
2022/12/06 01:55:58;;;;;;;11.03;8.97;;;6.50;99.90;;;;;;5036379;28;20213;-84
2022/12/06 01:58:31;;;;;;;13.17;8.97;;;6.40;99.90;;;;;;5037182;28;20218;-81
2022/12/06 02:00:57;;;;;;;12.83;8.87;;;6.50;99.90;;;;;;5036943;28;20210;-83
2022/12/06 02:03:27;;;;;;;11.77;8.60;;;6.40;99.90;;;;;;5036933;28;20206;-85
2022/12/06 02:05:56;;;;;;;12.27;9.20;;;6.40;99.90;;;;;;5022856;28;20211;-82
2022/12/06 02:08:24;;;;;;;12.27;9.10;;;6.30;99.90;;;;;;5036014;28;20557;-79
2022/12/06 02:10:51;;;;;;;15.65;10.82;;;6.40;99.90;;;;;;5035251;28;20763;-82
2022/12/06 02:13:18;;;;;;;11.73;9.27;;;6.50;99.90;;;;;;5035999;28;20207;-81
2022/12/06 02:15:56;;;;;;;11.97;9.00;;;6.50;99.90;;;;;;5035972;28;20214;-82
2022/12/06 02:18:33;;;;;;;12.90;8.63;;;6.50;99.90;;;;;;5025691;28;20210;-81
2022/12/06 02:21:13;;;;;;;12.47;9.03;;;6.70;99.90;;;;;;5034371;28;20207;-82
2022/12/06 02:24:01;;;;;;;12.30;8.97;;;6.60;99.90;;;;;;5036312;28;20203;-81
2022/12/06 02:26:35;;;;;;;13.13;8.10;;;6.60;99.90;;;;;;5035606;28;20202;-84
2022/12/06 02:29:43;;;;;;;12.23;9.20;;;6.50;99.90;;;;;;5036641;28;20210;-82
2022/12/06 02:32:17;;;;;;;11.63;8.93;;;6.60;99.90;;;;;;5035796;28;20199;-83
2022/12/06 02:34:48;;;;;;;10.87;8.53;;;6.60;99.90;;;;;;5036019;28;20203;-84
2022/12/06 02:37:21;;;;;;;10.97;8.83;;;6.50;99.90;;;;;;5035582;28;20215;-83
2022/12/06 02:39:52;;;;;;;12.63;8.67;;;6.50;99.90;;;;;;5029954;28;20211;-79
2022/12/06 02:42:22;;;;;;;12.23;8.53;;;6.60;99.90;;;;;;5026640;28;20670;-81
2022/12/06 02:44:53;;;;;;;12.70;8.90;;;6.70;99.90;;;;;;5035250;28;20686;-83
2022/12/06 02:47:25;;;;;;;11.63;8.93;;;6.80;99.90;;;;;;5035994;28;20209;-83
2022/12/06 02:49:53;;;;;;;10.07;8.40;;;6.90;99.90;;;;;;5036242;28;20204;-85
2022/12/06 02:52:24;;;;;;;12.63;8.13;;;6.90;99.90;;;;;;5036624;28;20196;-84
2022/12/06 02:54:55;;;;;;;9.80;8.27;;;6.80;99.90;;;;;;5036301;28;20591;-82
2022/12/06 02:57:39;;;;;;;13.47;8.73;;;6.70;99.90;;;;;;5036293;28;20206;-85
2022/12/06 03:00:37;;;;;;;10.70;7.90;;;6.80;99.90;;;;;;5035475;28;20194;-81
2022/12/06 03:03:36;;;;;;;11.47;8.30;;;6.60;99.90;;;;;;5035700;28;20207;-84
2022/12/06 03:06:28;;;;;;;11.73;9.03;;;6.40;99.90;;;;;;5008390;28;20231;-81
2022/12/06 03:09:02;;;;;;;14.83;8.30;;;6.30;99.90;;;;;;5035197;28;20203;-83
2022/12/06 03:11:39;;;;;;;12.43;8.60;;;6.10;99.90;;;;;;5034975;28;20673;-84
2022/12/06 03:14:10;;;;;;;10.33;8.23;;;6.20;99.90;;;;;;5035550;28;20206;-82
2022/12/06 03:16:47;;;;;;;15.07;9.13;;;6.60;99.90;;;;;;5035538;28;20223;-86
2022/12/06 03:19:20;;;;;;;15.50;9.10;;;6.60;99.90;;;;;;5036152;28;20195;-83
2022/12/06 03:21:54;;;;;;;13.90;9.43;;;6.50;99.90;;;;;;5036288;28;20206;-86
2022/12/06 03:24:25;;;;;;;12.73;10.57;;;6.50;99.90;;;;;;5035102;28;20447;-82
2022/12/06 03:26:54;;;;;;;9.47;8.13;;;6.60;99.90;;;;;;5036078;28;20192;-80
2022/12/06 03:29:26;;;;;;;17.17;9.57;;;6.40;99.90;;;;;;5035353;28;20199;-83
2022/12/06 03:31:55;;;;;;;12.67;8.57;;;6.50;99.90;;;;;;5035303;28;20207;-82
2022/12/06 03:34:26;;;;;;;11.57;8.57;;;6.40;99.90;;;;;;5034436;28;20199;-80
2022/12/06 03:36:56;;;;;;;15.73;8.73;;;6.30;99.90;;;;;;5035135;28;20199;-81
2022/12/06 03:39:29;;;;;;;10.77;8.33;;;6.30;99.90;;;;;;5034595;28;20199;-84
2022/12/06 03:41:58;;;;;;;13.97;9.43;;;6.20;99.90;;;;;;5035524;28;20203;-80
2022/12/06 03:44:27;;;;;;;14.30;8.50;;;6.40;99.90;;;;;;5033904;28;20223;-81
2022/12/06 03:47:00;;;;;;;11.57;8.57;;;6.30;99.90;;;;;;5034145;28;20242;-79
2022/12/06 03:49:31;;;;;;;13.60;9.75;;;6.20;99.90;;;;;;5033863;28;21010;-79
2022/12/06 03:51:59;;;;;;;12.20;8.50;;;6.40;99.90;;;;;;5034009;28;20203;-81
2022/12/06 03:54:26;;;;;;;11.80;9.03;;;6.20;99.90;;;;;;5021830;28;20223;-80
2022/12/06 03:56:53;;;;;;;10.20;8.27;;;6.50;99.90;;;;;;5032345;28;20203;-80
2022/12/06 03:59:19;;;;;;;13.43;8.47;;;6.20;99.90;;;;;;5028596;28;20283;-81
2022/12/06 04:01:48;;;;;;;14.80;8.27;;;6.10;99.90;;;;;;5029484;28;20221;-78
2022/12/06 04:04:15;;;;;;;14.60;8.83;;;6.00;99.90;;;;;;5033401;28;20226;-80
2022/12/06 04:06:42;;;;;;;16.93;8.80;;;6.00;99.90;;;;;;5021098;28;20214;-81
2022/12/06 04:11:54;;;;;;;15.77;8.63;;;6.10;99.90;;;;;;5021738;28;20202;-80
2022/12/06 04:14:21;;;;;;;13.55;9.63;;;6.10;99.90;;;;;;5033749;28;20442;-81
2022/12/06 04:19:32;;;;;;;14.13;8.37;;;5.80;99.90;;;;;;5033226;28;20262;-80
2022/12/06 04:24:46;;;;;;;14.60;9.30;;;6.10;99.90;;;;;;5027371;28;20696;-81
2022/12/06 04:40:57;;;;;;;15.43;8.43;;;6.10;99.90;;;;;;5032796;28;20248;-80
2022/12/06 04:43:41;;;;;;;16.70;8.90;;;6.10;99.90;;;;;;5019157;28;20570;-81
2022/12/06 04:46:09;;;;;;;14.83;9.27;;;6.10;99.90;;;;;;5033230;28;20717;-77
2022/12/06 04:48:36;;;;;;;12.80;8.73;;;6.20;99.90;;;;;;5017982;28;20211;-81
2022/12/06 04:51:03;;;;;;;12.07;9.00;;;6.20;99.90;;;;;;5033086;28;20524;-81
2022/12/06 04:53:29;;;;;;;13.17;8.37;;;6.10;99.90;;;;;;5033024;28;20230;-80
2022/12/06 04:55:58;;;;;;;17.97;13.53;;;6.20;99.90;;;;;;5033166;28;20204;-83
2022/12/06 04:58:25;;;;;;;14.07;10.20;;;6.20;99.90;;;;;;5021643;28;20200;-81
2022/12/06 05:00:54;;;;;;;15.97;11.83;;;6.20;99.90;;;;;;5031930;28;20206;-81
2022/12/06 05:03:21;;;;;;;19.77;11.07;;;5.90;99.90;;;;;;5031686;28;20203;-84
2022/12/06 05:05:48;;;;;;;14.70;8.90;;;5.90;99.90;;;;;;5032327;28;20227;-81
2022/12/06 05:08:15;;;;;;;17.52;11.68;;;6.00;99.90;;;;;;5032337;28;20445;-80
2022/12/06 05:10:46;;;;;;;19.47;10.43;;;6.20;99.90;;;;;;5018410;28;20586;-81
2022/12/06 05:13:15;;;;;;;13.90;9.03;;;6.30;99.90;;;;;;5019813;28;20199;-82
2022/12/06 05:15:50;;;;;;;14.27;9.30;;;6.20;99.90;;;;;;5032639;28;20203;-80
2022/12/06 05:18:17;;;;;;;13.43;9.03;;;6.10;99.90;;;;;;5032293;28;20289;-82
2022/12/06 05:20:44;;;;;;;16.13;9.00;;;5.80;99.90;;;;;;5032663;28;20214;-81
2022/12/06 05:23:11;;;;;;;15.40;8.97;;;5.60;99.90;;;;;;5033362;28;20195;-80
2022/12/06 05:25:38;;;;;;;16.67;9.17;;;5.70;99.90;;;;;;5033328;28;20238;-81
2022/12/06 05:28:07;;;;;;;14.50;9.13;;;5.70;99.90;;;;;;5033897;28;20206;-82
2022/12/06 05:30:36;;;;;;;12.70;8.70;;;5.70;99.90;;;;;;5033023;28;20195;-84
2022/12/06 05:33:03;;;;;;;18.43;8.37;;;5.50;99.90;;;;;;5033022;28;20548;-83
2022/12/06 05:35:30;;;;;;;14.47;9.20;;;5.30;99.90;;;;;;5033068;28;20575;-82
2022/12/06 05:37:56;;;;;;;16.83;9.40;;;5.50;99.90;;;;;;5032228;28;20286;-82
2022/12/06 05:40:23;;;;;;;12.73;8.63;;;5.40;99.90;;;;;;5032581;28;20207;-81
2022/12/06 05:42:51;;;;;;;15.17;9.23;;;5.60;99.90;;;;;;5032861;28;20210;-82
2022/12/06 05:45:18;;;;;;;13.87;9.27;;;5.60;99.90;;;;;;5032572;28;20878;-83
2022/12/06 05:47:46;;;;;;;11.73;7.87;;;5.70;99.90;;;;;;5031248;28;20655;-80
2022/12/06 05:50:14;;;;;;;16.30;8.00;;;5.80;99.90;;;;;;5032837;28;20204;-84
2022/12/06 05:52:41;;;;;;;23.23;9.20;;;5.80;99.90;;;;;;5032843;28;20228;-82
2022/12/06 05:55:08;;;;;;;13.73;9.20;;;5.80;99.90;;;;;;5032885;28;20643;-83
2022/12/06 05:57:37;;;;;;;19.10;8.63;;;5.70;99.90;;;;;;5033134;28;20206;-80
2022/12/06 06:00:06;;;;;;;14.87;8.70;;;5.60;99.90;;;;;;5032361;28;20203;-80
2022/12/06 06:02:32;;;;;;;14.53;9.87;;;5.70;99.90;;;;;;5034585;28;20211;-79
2022/12/06 06:05:00;;;;;;;14.63;8.87;;;5.80;99.90;;;;;;5035450;28;20223;-80
2022/12/06 06:07:28;;;;;;;14.10;9.33;;;5.80;99.90;;;;;;5034795;28;20219;-81
2022/12/06 06:09:55;;;;;;;14.73;8.30;;;5.70;99.90;;;;;;5035786;28;20203;-79
2022/12/06 06:12:23;;;;;;;14.20;8.30;;;5.60;99.90;;;;;;5035856;28;20203;-79
2022/12/06 06:14:49;;;;;;;17.47;8.67;;;5.60;99.90;;;;;;5035853;28;20226;-81
2022/12/06 06:17:17;;;;;;;19.93;8.97;;;5.70;99.90;;;;;;5035501;28;20203;-81
2022/12/06 06:19:44;;;;;;;18.50;9.77;;;5.70;99.90;;;;;;5036258;28;20207;-77
2022/12/06 06:22:12;;;;;;;20.10;10.50;;;5.70;99.90;;;;;;5034999;28;20674;-79
2022/12/06 06:24:41;;;;;;;21.63;9.93;;;5.60;99.90;;;;;;5033605;28;20202;-79
2022/12/06 06:27:08;;;;;;;16.13;8.63;;;5.60;99.90;;;;;;5034395;28;20562;-80
2022/12/06 06:29:35;;;;;;;16.87;9.17;;;5.50;99.90;;;;;;5034384;28;20215;-79
2022/12/06 06:32:02;;;;;;;12.73;9.63;;;5.50;99.90;;;;;;5034127;28;20647;-78
2022/12/06 06:34:28;;;;;;;15.93;9.43;;;5.50;99.90;;;;;;5035247;28;20199;-80
2022/12/06 06:36:55;;;;;;;18.60;10.43;;;5.40;99.90;;;;;;5035513;28;20230;-77
2022/12/06 06:39:24;;;;;;;20.07;10.07;;;5.50;99.90;;;;;;5035586;28;20202;-80
2022/12/06 06:41:50;;;;;;;24.40;15.45;;;5.50;99.90;;;;;;5024918;28;20428;-80
2022/12/06 06:44:17;;;;;;;18.80;11.20;;;5.50;99.90;;;;;;5027233;28;20203;-79
2022/12/06 06:46:44;;;;;;;15.10;10.67;;;5.60;99.90;;;;;;5025411;28;20231;-77
2022/12/06 06:49:12;;;;;;;21.00;10.90;;;5.50;99.90;;;;;;5025650;28;20191;-78
2022/12/06 06:51:39;;;;;;;18.83;10.13;;;5.40;99.90;;;;;;5025935;28;20203;-79
2022/12/06 06:54:06;;;;;;;17.77;10.90;;;5.40;99.90;;;;;;5029833;28;20226;-81
2022/12/06 06:56:34;;;;;;;15.77;9.80;;;5.30;99.90;;;;;;5022222;28;20211;-77
2022/12/06 06:59:01;;;;;;;17.77;9.67;;;5.30;99.90;;;;;;5019021;28;20200;-78
2022/12/06 07:01:28;;;;;;;15.83;10.67;;;5.30;99.90;;;;;;5035119;28;20206;-79
2022/12/06 07:03:55;;;;;;;23.90;10.33;;;5.20;99.90;;;;;;5020316;28;20204;-78
2022/12/06 07:06:22;;;;;;;19.20;10.27;;;5.10;99.90;;;;;;5013893;28;20236;-79
2022/12/06 07:08:48;;;;;;;17.60;10.03;;;5.20;99.90;;;;;;5013830;28;20258;-78
2022/12/06 07:11:16;;;;;;;18.83;10.20;;;5.10;99.90;;;;;;5014324;28;20220;-79
2022/12/06 07:13:44;;;;;;;15.60;9.67;;;5.00;99.90;;;;;;5015123;28;20203;-76
2022/12/06 07:16:14;;;;;;;18.67;10.20;;;4.80;99.90;;;;;;5015048;28;20208;-81
2022/12/06 07:18:41;;;;;;;14.33;9.50;;;4.90;99.90;;;;;;5015453;28;20204;-80
2022/12/06 07:21:11;;;;;;;15.13;8.93;;;4.90;99.90;;;;;;5014861;28;20203;-77
2022/12/06 07:23:38;;;;;;;15.97;9.47;;;4.80;99.90;;;;;;5014619;28;20573;-79
2022/12/06 07:26:07;;;;;;;15.27;9.93;;;4.80;99.90;;;;;;5013857;28;20240;-80
2022/12/06 07:28:35;;;;;;;17.23;8.80;;;4.70;99.90;;;;;;5014281;28;20192;-79
2022/12/06 07:31:09;;;;;;;15.60;9.53;;;4.80;99.90;;;;;;5015027;28;20208;-81
2022/12/06 07:33:36;;;;;;;14.67;9.13;;;4.70;99.90;;;;;;5014075;28;20234;-79
2022/12/06 07:36:03;;;;;;;14.90;9.90;;;4.80;99.90;;;;;;5014783;28;20204;-75
2022/12/06 07:38:30;;;;;;;18.00;9.53;;;4.70;99.90;;;;;;5014429;28;20564;-77
2022/12/06 07:41:01;;;;;;;15.77;10.07;;;4.80;99.90;;;;;;5014756;28;20203;-78
2022/12/06 07:46:14;;;;;;;20.60;11.03;;;4.80;99.90;;;;;;5013464;28;20230;-78
2022/12/06 07:48:41;;;;;;;13.80;10.33;;;4.80;99.90;;;;;;5013573;28;20204;-78
2022/12/06 07:51:08;;;;;;;17.67;10.50;;;4.90;99.90;;;;;;5014038;28;20710;-78
2022/12/06 07:53:35;;;;;;;18.17;10.00;;;4.90;99.90;;;;;;5014105;28;20254;-79
2022/12/06 07:56:06;;;;;;;23.83;10.73;;;4.90;99.90;;;;;;5014637;28;20196;-76
2022/12/06 07:58:33;;;;;;;21.50;10.77;;;5.00;99.90;;;;;;5014103;28;20647;-76
2022/12/06 08:01:02;;;;;;;15.13;9.43;;;5.10;99.90;;;;;;5019801;28;20603;-79
2022/12/06 08:03:30;;;;;;;17.10;9.27;;;4.90;99.90;;;;;;5033371;28;20219;-80
2022/12/06 08:05:58;;;;;;;15.47;9.30;;;4.90;99.90;;;;;;5033350;28;20223;-79
2022/12/06 08:08:26;;;;;;;19.37;10.13;;;5.00;99.90;;;;;;5027650;28;20215;-78
2022/12/06 08:10:52;;;;;;;17.30;10.07;;;5.40;99.90;;;;;;5032254;28;20203;-80
2022/12/06 08:13:20;;;;;;;17.20;10.70;;;5.50;99.90;;;;;;5015586;28;20303;-79
2022/12/06 08:15:47;;;;;;;18.60;9.50;;;5.20;99.90;;;;;;5014490;28;20208;-78
2022/12/06 08:18:14;;;;;;;24.40;9.57;;;5.20;99.90;;;;;;5024752;28;20219;-77
2022/12/06 08:20:42;;;;;;;17.43;10.23;;;5.20;99.90;;;;;;5031864;28;20294;-77
2022/12/06 08:23:09;;;;;;;15.80;10.07;;;5.20;99.90;;;;;;5017991;28;20195;-77
2022/12/06 08:25:36;;;;;;;18.70;10.80;;;5.20;99.90;;;;;;5031959;28;20208;-79
2022/12/06 08:28:04;;;;;;;18.60;10.53;;;5.10;99.90;;;;;;5033017;28;20207;-79
2022/12/06 08:30:31;;;;;;;16.00;10.13;;;5.20;99.90;;;;;;5031854;28;20202;-77
2022/12/06 08:32:58;;;;;;;18.80;10.30;;;5.30;99.90;;;;;;5032331;28;20289;-77
2022/12/06 08:35:25;;;;;;;25.97;10.53;;;5.30;99.90;;;;;;5032725;28;20208;-78
2022/12/06 08:37:53;;;;;;;19.40;10.53;;;5.30;99.90;;;;;;5018293;28;20202;-79
2022/12/06 08:40:21;;;;;;;27.17;11.20;;;5.20;99.90;;;;;;5032858;28;20202;-78
2022/12/06 08:42:47;;;;;;;16.57;10.33;;;5.20;99.90;;;;;;5018134;28;20227;-79
2022/12/06 08:45:15;;;;;;;17.13;10.13;;;5.30;99.90;;;;;;5032694;28;20203;-81
2022/12/06 08:47:43;;;;;;;18.50;10.80;;;5.40;99.90;;;;;;5031209;28;20235;-79
2022/12/06 08:50:13;;;;;;;15.43;9.13;;;5.40;99.90;;;;;;5032833;28;20206;-81
2022/12/06 08:52:40;;;;;;;16.27;9.47;;;5.40;99.90;;;;;;5033238;28;20374;-78
2022/12/06 08:55:09;;;;;;;18.90;9.97;;;5.50;99.90;;;;;;5032715;28;20217;-78
2022/12/06 08:57:36;;;;;;;16.30;9.47;;;5.50;99.90;;;;;;5032801;28;20210;-79
2022/12/06 09:00:04;;;;;;;18.70;10.03;;;5.60;99.90;;;;;;5031753;28;20687;-78
2022/12/06 09:02:30;;;;;;;17.23;9.40;;;5.70;99.90;;;;;;5014671;28;20195;-79
2022/12/06 09:04:57;;;;;;;12.53;8.27;;;5.90;99.90;;;;;;5014510;28;20199;-79
2022/12/06 09:07:25;;;;;;;22.33;9.63;;;6.10;99.90;;;;;;5012220;28;20239;-79
2022/12/06 09:09:53;;;;;;;13.77;8.80;;;6.10;99.90;;;;;;5025673;28;20199;-79
2022/12/06 09:12:22;;;;;;;17.10;8.57;;;6.10;99.90;;;;;;5021490;28;20202;-80
2022/12/06 09:14:49;;;;;;;14.30;9.30;;;5.90;99.90;;;;;;5031780;28;20200;-80
2022/12/06 09:17:17;;;;;;;16.70;8.27;;;5.70;99.90;;;;;;5012423;28;20652;-80
2022/12/06 09:19:44;;;;;;;11.27;8.50;;;5.90;99.90;;;;;;5015954;28;20207;-80
2022/12/06 09:22:10;;;;;;;16.23;8.80;;;5.90;99.90;;;;;;5024842;28;20192;-79
2022/12/06 09:24:37;;;;;;;14.13;8.53;;;5.90;99.90;;;;;;5029975;28;20207;-78
2022/12/06 09:27:04;;;;;;;14.73;9.77;;;6.10;99.90;;;;;;5025359;28;20242;-79
2022/12/06 09:29:34;;;;;;;12.97;8.87;;;5.90;99.90;;;;;;5020415;28;20211;-79
2022/12/06 09:32:01;;;;;;;16.60;9.40;;;5.80;99.90;;;;;;5027211;28;20575;-84
2022/12/06 09:34:28;;;;;;;15.80;8.77;;;5.90;99.90;;;;;;5013477;28;20690;-80
2022/12/06 09:36:58;;;;;;;12.23;8.87;;;5.90;99.90;;;;;;5034971;28;20203;-83
2022/12/06 09:39:30;;;;;;;22.53;9.77;;;5.90;99.90;;;;;;5034488;28;20202;-81
2022/12/06 09:42:25;;;;;;;16.23;9.57;;;6.00;99.90;;;;;;5034628;28;20211;-83
2022/12/06 09:45:28;;;;;;;13.07;8.70;;;5.90;99.90;;;;;;5049869;28;20199;-84
2022/12/06 09:48:12;;;;;;;16.63;8.43;;;5.90;99.90;;;;;;5050021;28;20226;-82
2022/12/06 09:50:49;;;;;;;18.07;8.47;;;6.10;99.90;;;;;;5052075;28;20195;-83
2022/12/06 09:53:22;;;;;;;11.43;7.83;;;6.20;99.90;;;;;;5039933;28;20220;-84
2022/12/06 09:56:02;;;;;;;10.23;7.80;;;6.10;99.90;;;;;;5051540;28;20215;-80
2022/12/06 09:58:43;;;;;;;14.60;7.57;;;6.10;99.90;;;;;;5030890;28;20294;-80
2022/12/06 10:01:19;;;;;;;14.10;7.53;;;6.00;99.90;;;;;;5036221;28;20195;-82
2022/12/06 10:03:58;;;;;;;11.60;7.40;;;5.90;99.90;;;;;;5030682;28;20218;-84
2022/12/06 10:06:30;;;;;;;12.63;8.10;;;6.00;99.90;;;;;;5022169;28;20239;-81
2022/12/06 10:09:12;;;;;;;12.47;7.20;;;6.10;99.90;;;;;;5022932;28;20203;-81
2022/12/06 10:11:52;;;;;;;14.50;8.10;;;6.20;99.90;;;;;;5037032;28;20306;-88
2022/12/06 10:14:30;;;;;;;15.07;8.07;;;6.10;99.90;;;;;;5033712;28;20199;-80
2022/12/06 10:17:08;;;;;;;14.90;7.90;;;6.20;99.90;;;;;;5026782;28;20671;-81
2022/12/06 10:19:53;;;;;;;13.83;8.13;;;6.20;99.90;;;;;;5038386;28;20204;-81
2022/12/06 10:22:30;;;;;;;13.00;8.23;;;6.10;99.90;;;;;;5037202;28;20199;-82
2022/12/06 10:25:07;;;;;;;19.03;7.90;;;6.20;99.90;;;;;;5038042;28;20215;-80
2022/12/06 10:27:37;;;;;;;13.30;7.93;;;6.20;99.90;;;;;;5036933;28;20246;-83
2022/12/06 10:30:09;;;;;;;11.27;7.70;;;6.30;99.90;;;;;;5037480;28;20196;-80
2022/12/06 10:32:50;;;;;;;14.43;8.82;;;6.40;99.90;;;;;;5035781;28;20441;-81
2022/12/06 10:35:29;;;;;;;13.57;6.53;;;6.40;99.90;;;;;;5037075;28;20200;-79
2022/12/06 10:38:06;;;;;;;9.53;6.23;;;6.50;99.90;;;;;;5036336;28;20211;-79
2022/12/06 10:40:42;;;;;;;11.77;7.73;;;6.50;99.90;;;;;;5036055;28;20202;-84
2022/12/06 10:43:17;;;;;;;9.60;7.77;;;6.50;99.90;;;;;;5035529;28;20205;-81
2022/12/06 10:48:38;;;;;;;12.33;7.77;;;6.50;99.90;;;;;;5035720;28;20206;-80
2022/12/06 10:51:12;;;;;;;11.93;6.50;;;6.60;99.90;;;;;;5035436;28;20551;-81
2022/12/06 10:53:44;;;;;;;11.03;5.70;;;6.80;99.90;;;;;;5036018;28;20687;-80
2022/12/06 10:56:16;;;;;;;12.77;7.10;;;7.00;99.90;;;;;;5022784;28;20206;-81
2022/12/06 10:58:48;;;;;;;9.20;5.77;;;7.00;99.90;;;;;;5036063;28;20219;-79
2022/12/06 11:01:19;;;;;;;11.20;7.10;;;7.20;99.90;;;;;;5034640;28;20462;-83
2022/12/06 11:03:55;;;;;;;9.43;6.20;;;7.20;99.90;;;;;;5035751;28;20222;-80
2022/12/06 11:06:30;;;;;;;7.73;5.30;;;7.10;99.90;;;;;;5035143;28;20215;-81
2022/12/06 11:09:01;;;;;;;8.13;6.00;;;7.30;99.90;;;;;;5034946;28;20203;-80
2022/12/06 11:11:33;;;;;;;7.67;5.43;;;7.30;99.90;;;;;;5036045;28;20199;-82
2022/12/06 11:14:05;;;;;;;8.60;5.37;;;7.20;99.90;;;;;;5035280;28;20663;-81
2022/12/06 11:16:36;;;;;;;9.57;5.10;;;7.10;99.90;;;;;;5034727;28;20215;-79
2022/12/06 11:19:18;;;;;;;8.00;4.50;;;7.00;99.90;;;;;;5035048;28;20214;-80
2022/12/06 11:21:55;;;;;;;6.00;4.40;;;7.00;99.90;;;;;;5035171;28;20226;-80
2022/12/06 11:24:28;;;;;;;10.63;4.70;;;6.90;99.90;;;;;;5021543;28;20658;-79
2022/12/06 11:27:04;;;;;;;6.07;4.27;;;7.10;99.90;;;;;;5034309;28;20222;-80
2022/12/06 11:29:31;;;;;;;11.40;4.53;;;7.20;99.90;;;;;;5024339;28;20287;-80
2022/12/06 11:32:01;;;;;;;6.03;4.07;;;7.30;99.90;;;;;;5017769;28;20196;-82
2022/12/06 11:34:36;;;;;;;7.27;4.50;;;7.40;99.90;;;;;;5034382;28;20294;-79
2022/12/06 11:37:05;;;;;;;6.73;4.47;;;7.50;99.90;;;;;;5034414;28;20662;-79
2022/12/06 11:39:33;;;;;;;5.63;3.80;;;7.30;99.90;;;;;;5027650;28;20195;-79
2022/12/06 11:42:02;;;;;;;6.30;3.30;;;7.50;99.90;;;;;;5031545;28;20208;-79
2022/12/06 11:44:37;;;;;;;8.30;3.60;;;7.50;99.90;;;;;;5018053;28;20200;-79
2022/12/06 11:47:06;;;;;;;4.20;3.70;;;7.40;99.90;;;;;;5034445;28;20222;-78
2022/12/06 11:49:36;;;;;;;5.07;3.40;;;7.40;99.90;;;;;;5033891;28;20203;-79
2022/12/06 11:52:10;;;;;;;6.63;3.20;;;7.40;99.90;;;;;;5034376;28;20207;-79
2022/12/06 11:54:42;;;;;;;3.40;3.10;;;7.70;99.90;;;;;;5031634;28;20739;-79
2022/12/06 11:57:16;;;;;;;2.83;2.60;;;7.80;99.90;;;;;;5019181;28;20203;-80
2022/12/06 12:00:11;;;;;;;8.97;3.47;;;7.70;99.90;;;;;;5033513;28;20199;-79
2022/12/06 12:02:38;;;;;;;3.43;2.20;;;7.80;99.90;;;;;;5021484;28;20211;-79
2022/12/06 12:05:19;;;;;;;6.33;2.80;;;7.70;99.90;;;;;;5021190;28;20206;-80
2022/12/06 12:07:50;;;;;;;3.33;2.20;;;7.70;99.90;;;;;;5028080;28;20820;-78
2022/12/06 12:10:28;;;;;;;4.20;2.10;;;7.80;99.90;;;;;;5020848;28;20589;-78
2022/12/06 12:15:50;;;;;;;5.60;2.40;;;7.80;99.90;;;;;;5013124;28;20209;-82
2022/12/06 12:18:24;;;;;;;6.47;2.33;;;7.80;99.90;;;;;;5013781;28;20203;-81
2022/12/06 12:20:52;;;;;;;2.63;2.43;;;7.70;99.90;;;;;;5029143;28;20297;-82
2022/12/06 12:23:22;;;;;;;4.27;2.60;;;7.70;99.90;;;;;;5023397;28;20203;-80
2022/12/06 12:26:00;;;;;;;6.23;3.00;;;8.00;99.90;;;;;;5013927;28;20214;-79
2022/12/06 12:28:29;;;;;;;5.80;2.47;;;7.90;99.90;;;;;;5014428;28;20235;-81
2022/12/06 12:30:58;;;;;;;9.33;2.70;;;8.00;99.90;;;;;;5017926;28;20200;-81
2022/12/06 12:33:26;;;;;;;2.23;2.07;;;8.10;99.90;;;;;;5032516;28;20211;-79
2022/12/06 12:36:09;;;;;;;4.27;2.10;;;7.90;99.90;;;;;;5033851;28;20687;-79
2022/12/06 12:38:41;;;;;;;2.90;1.90;;;8.00;99.90;;;;;;5033821;28;20204;-79
2022/12/06 12:41:32;;;;;;;4.07;2.00;;;8.10;99.90;;;;;;5033833;28;20578;-81
2022/12/06 12:44:03;;;;;;;3.80;1.70;;;8.10;99.90;;;;;;5023091;28;20206;-78
2022/12/06 12:46:35;;;;;;;3.43;2.13;;;8.10;99.90;;;;;;5014608;28;20204;-82
2022/12/06 12:49:22;;;;;;;4.17;2.07;;;8.20;99.90;;;;;;5032057;28;20698;-79
2022/12/06 12:51:49;;;;;;;2.37;1.90;;;8.20;99.90;;;;;;5013980;28;20207;-79
2022/12/06 12:54:21;;;;;;;5.90;2.17;;;8.30;99.90;;;;;;5017292;28;20222;-79
2022/12/06 12:56:49;;;;;;;28.80;4.23;;;8.40;99.90;;;;;;5032349;28;20677;-80
2022/12/06 12:59:18;;;;;;;3.00;1.83;;;8.50;99.90;;;;;;5033236;28;20195;-81
2022/12/06 13:01:51;;;;;;;22.57;4.03;;;8.40;99.90;;;;;;5031545;28;20203;-82
2022/12/06 13:04:28;;;;;;;2.30;1.60;;;8.40;99.90;;;;;;5028220;28;20208;-80
2022/12/06 13:06:59;;;;;;;6.40;1.70;;;8.30;99.90;;;;;;5032197;28;20211;-79
2022/12/06 13:09:28;;;;;;;6.83;1.70;;;8.40;99.90;;;;;;5031512;28;20203;-80
2022/12/06 13:12:01;;;;;;;125.13;15.50;;;8.60;99.90;;;;;;5028426;28;20202;-81
2022/12/06 13:14:29;;;;;;;6.83;2.33;;;8.50;99.90;;;;;;5037923;28;20206;-79
2022/12/06 13:17:03;;;;;;;6.50;1.70;;;8.60;99.90;;;;;;5035564;28;20199;-78
2022/12/06 13:19:35;;;;;;;6.30;2.00;;;8.70;99.90;;;;;;5037230;28;20214;-79
2022/12/06 13:22:04;;;;;;;3.03;1.77;;;8.60;99.90;;;;;;5038113;28;20702;-79
2022/12/06 13:24:33;;;;;;;1.90;1.50;;;8.70;99.90;;;;;;5025123;28;20205;-78
2022/12/06 13:27:03;;;;;;;1.93;1.50;;;8.60;99.90;;;;;;5039119;28;20210;-80
2022/12/06 13:29:34;;;;;;;2.67;1.57;;;8.30;99.90;;;;;;5035586;28;20210;-79
2022/12/06 13:32:07;;;;;;;3.47;1.77;;;8.40;99.90;;;;;;5019061;28;20663;-79
2022/12/06 13:34:38;;;;;;;1.47;1.37;;;8.20;99.90;;;;;;5036848;28;20209;-78
2022/12/06 13:37:29;;;;;;;2.57;1.60;;;8.40;99.90;;;;;;5037091;28;20453;-78